Time;durP1;ratioP1;P1;durP2;ratioP2;P2;SDS_P1;SDS_P2;PMS_P1;PMS_P2;Temp;Humidity;BMP_temperature;BMP_pressure;BME280_temperature;BME280_humidity;BME280_pressure;Samples;Min_cycle;Max_cycle;Signal;HPM_P1;HPM_P2
2023/05/04 00:02:03;;;;;;;0.10;0.10;;;;;;;11.80;53.21;102456.34;5076311;28;20032;-81
2023/05/04 00:04:29;;;;;;;0.10;0.10;;;;;;;11.78;53.54;102450.13;5087892;28;20039;-83
2023/05/04 00:06:55;;;;;;;0.10;0.10;;;;;;;11.77;52.93;102437.72;5082249;28;20071;-84
2023/05/04 00:09:21;;;;;;;0.10;0.10;;;;;;;11.78;52.88;102441.28;5076114;28;20043;-83
2023/05/04 00:11:47;;;;;;;0.10;0.10;;;;;;;11.77;53.85;102442.16;5075175;28;20016;-82
2023/05/04 00:14:13;;;;;;;0.10;0.10;;;;;;;11.75;53.27;102436.88;5072409;28;20047;-83
2023/05/04 00:16:39;;;;;;;0.43;0.43;;;;;;;11.74;53.30;102437.75;5068800;28;20029;-83
2023/05/04 00:19:06;;;;;;;0.30;0.30;;;;;;;11.73;53.38;102432.44;5066902;28;20036;-83
2023/05/04 00:21:32;;;;;;;0.20;0.20;;;;;;;11.72;53.60;102438.63;5068142;28;20037;-83
2023/05/04 00:23:58;;;;;;;0.10;0.10;;;;;;;11.69;53.88;102426.25;5073578;28;20025;-84
2023/05/04 00:26:24;;;;;;;0.10;0.10;;;;;;;11.70;53.67;102432.41;5069194;28;20549;-83
2023/05/04 00:28:50;;;;;;;0.10;0.10;;;;;;;11.70;53.44;102419.16;5066660;28;20474;-83
2023/05/04 00:31:17;;;;;;;0.10;0.10;;;;;;;11.68;53.74;102424.47;5066254;28;21109;-85
2023/05/04 00:33:44;;;;;;;0.10;0.10;;;;;;;11.67;53.79;102421.81;5065848;28;20025;-83
2023/05/04 00:36:12;;;;;;;0.22;0.22;;;;;;;11.65;53.97;102424.44;5074408;28;20020;-83
2023/05/04 00:38:47;;;;;;;3.20;1.95;;;;;;;11.69;54.00;102425.34;5073524;28;20837;-82
2023/05/04 00:41:14;;;;;;;0.10;0.10;;;;;;;11.60;53.75;102426.22;5070656;28;20048;-83
2023/05/04 00:43:40;;;;;;;0.10;0.10;;;;;;;11.56;53.60;102422.66;5074012;28;20036;-83
2023/05/04 00:46:06;;;;;;;0.10;0.10;;;;;;;11.54;54.10;102419.16;5067478;28;20025;-82
2023/05/04 00:48:32;;;;;;;0.20;0.20;;;;;;;11.53;54.22;102422.69;5074066;28;20037;-82
2023/05/04 00:50:58;;;;;;;0.10;0.10;;;;;;;11.50;53.74;102412.03;5074088;28;20025;-81
2023/05/04 00:53:25;;;;;;;0.20;0.20;;;;;;;11.49;53.78;102415.59;5070864;28;20033;-83
2023/05/04 00:55:51;;;;;;;0.10;0.10;;;;;;;11.45;54.08;102414.72;5077294;28;20445;-84
2023/05/04 00:58:18;;;;;;;0.10;0.10;;;;;;;11.45;54.27;102414.72;5077682;28;20078;-81
2023/05/04 01:00:44;;;;;;;0.10;0.10;;;;;;;11.44;54.02;102407.63;5072524;28;20032;-84
2023/05/04 01:03:10;;;;;;;2.40;2.20;;;;;;;11.44;54.18;102401.41;5077917;28;20026;-83
2023/05/04 01:05:45;;;;;;;0.10;0.10;;;;;;;11.44;54.32;102402.31;5069813;28;20032;-81
2023/05/04 01:08:18;;;;;;;0.10;0.10;;;;;;;11.43;54.27;102404.97;5074963;28;20087;-83
2023/05/04 01:10:53;;;;;;;1.75;1.35;;;;;;;11.39;54.22;102405.84;5068835;28;20422;-82
2023/05/04 01:13:21;;;;;;;0.20;0.20;;;;;;;11.36;54.65;102404.06;5071017;28;20570;-85
2023/05/04 01:15:48;;;;;;;0.00;0.00;;;;;;;11.33;54.01;102389.03;5085353;28;20032;-81
2023/05/04 01:18:15;;;;;;;0.10;0.10;;;;;;;11.32;54.68;102389.03;5086659;28;20020;-81
2023/05/04 01:20:42;;;;;;;0.30;0.30;;;;;;;11.32;54.31;102386.38;5078731;28;20235;-84
2023/05/04 01:23:08;;;;;;;0.10;0.10;;;;;;;11.31;54.30;102384.59;5073208;28;20028;-83
2023/05/04 01:25:46;;;;;;;0.10;0.10;;;;;;;11.33;54.69;102382.84;5076493;28;20122;-84
2023/05/04 01:28:19;;;;;;;0.10;0.10;;;;;;;11.31;54.19;102380.19;5075680;28;20119;-84
2023/05/04 01:30:50;;;;;;;0.10;0.10;;;;;;;11.28;54.95;102374.88;5073049;28;20044;-85
2023/05/04 01:33:18;;;;;;;0.20;0.20;;;;;;;11.24;54.43;102377.50;5073960;28;20036;-84
2023/05/04 01:35:45;;;;;;;0.75;0.75;;;;;;;11.23;54.77;102368.66;5068551;28;20029;-86
2023/05/04 01:38:11;;;;;;;0.10;0.10;;;;;;;11.27;54.87;102373.09;5071017;28;20064;-83
2023/05/04 01:40:37;;;;;;;0.10;0.10;;;;;;;11.24;54.87;102372.19;5069560;28;20028;-84
2023/05/04 01:43:03;;;;;;;0.10;0.10;;;;;;;11.23;54.99;102376.63;5073188;28;20039;-82
2023/05/04 01:45:29;;;;;;;0.10;0.10;;;;;;;11.21;55.02;102373.06;5068621;28;20028;-82
2023/05/04 01:47:55;;;;;;;0.10;0.10;;;;;;;11.20;54.64;102371.31;5071886;28;20028;-85
2023/05/04 01:50:22;;;;;;;0.10;0.10;;;;;;;11.16;54.79;102364.22;5073178;28;20491;-85
2023/05/04 01:52:48;;;;;;;0.10;0.10;;;;;;;11.14;54.78;102364.22;5074032;28;20020;-83
2023/05/04 01:55:14;;;;;;;0.10;0.10;;;;;;;11.16;54.77;102359.81;5074913;28;20109;-84
2023/05/04 01:57:40;;;;;;;0.10;0.10;;;;;;;11.11;54.87;102363.34;5069385;28;20035;-84
2023/05/04 02:00:06;;;;;;;0.10;0.10;;;;;;;11.06;55.36;102363.31;5074316;28;20032;-84
2023/05/04 02:02:33;;;;;;;0.10;0.10;;;;;;;11.06;54.78;102362.44;5081288;28;20017;-85
2023/05/04 02:04:59;;;;;;;0.10;0.10;;;;;;;11.03;55.40;102362.41;5093537;28;20028;-84
2023/05/04 02:07:25;;;;;;;0.10;0.10;;;;;;;10.99;54.84;102362.44;5084980;28;20044;-83
2023/05/04 02:09:51;;;;;;;0.10;0.10;;;;;;;10.97;55.13;102356.22;5071196;28;20025;-84
2023/05/04 02:12:17;;;;;;;0.10;0.10;;;;;;;10.97;55.02;102352.69;5074321;28;20092;-84
2023/05/04 02:14:43;;;;;;;0.10;0.10;;;;;;;10.95;55.25;102355.34;5077114;28;20395;-83
2023/05/04 02:17:09;;;;;;;1.75;1.65;;;;;;;10.93;55.24;102350.91;5074092;28;20453;-84
2023/05/04 02:19:35;;;;;;;0.10;0.10;;;;;;;10.91;55.20;102356.22;5069741;28;20025;-84
2023/05/04 02:22:01;;;;;;;0.50;0.50;;;;;;;10.90;55.24;102358.88;5076559;28;20052;-82
2023/05/04 02:24:27;;;;;;;0.10;0.10;;;;;;;10.88;55.38;102356.22;5064371;28;20029;-83
2023/05/04 02:26:53;;;;;;;0.10;0.10;;;;;;;10.85;55.49;102353.53;5074101;28;20111;-82
2023/05/04 02:29:19;;;;;;;0.10;0.10;;;;;;;10.83;55.21;102353.53;5071057;28;20028;-83
2023/05/04 02:31:45;;;;;;;0.10;0.10;;;;;;;10.81;55.38;102346.47;5072724;28;20207;-81
2023/05/04 02:34:12;;;;;;;0.10;0.10;;;;;;;10.78;55.59;102351.75;5075670;28;20036;-82
2023/05/04 02:36:38;;;;;;;0.10;0.10;;;;;;;10.77;55.36;102344.69;5070194;28;20032;-83
2023/05/04 02:39:04;;;;;;;0.10;0.10;;;;;;;10.73;55.43;102341.16;5067228;28;20039;-86
2023/05/04 02:41:30;;;;;;;0.10;0.10;;;;;;;10.72;55.51;102341.16;5075964;28;20514;-81
2023/05/04 02:43:56;;;;;;;0.10;0.10;;;;;;;10.68;55.62;102343.78;5068784;28;20047;-83
2023/05/04 02:46:24;;;;;;;0.10;0.10;;;;;;;10.67;55.58;102338.47;5074900;28;20449;-84
2023/05/04 02:48:50;;;;;;;0.10;0.10;;;;;;;10.66;55.12;102337.56;5070569;28;20024;-84
2023/05/04 02:51:17;;;;;;;0.73;0.73;;;;;;;10.64;54.95;102334.03;5073904;28;20028;-84
2023/05/04 02:53:43;;;;;;;0.10;0.10;;;;;;;10.62;55.48;102327.84;5072537;28;20042;-83
2023/05/04 02:56:09;;;;;;;0.28;0.28;;;;;;;10.59;55.64;102335.81;5064937;28;20025;-84
2023/05/04 02:58:35;;;;;;;0.10;0.10;;;;;;;10.57;55.60;102334.03;5071920;28;20491;-83
2023/05/04 03:01:01;;;;;;;0.10;0.10;;;;;;;10.56;55.78;102333.13;5068959;28;20028;-83
2023/05/04 03:03:27;;;;;;;0.10;0.10;;;;;;;10.55;55.47;102331.34;5070481;28;20033;-84
2023/05/04 03:05:53;;;;;;;0.10;0.10;;;;;;;10.52;55.73;102326.91;5070477;28;20028;-82
2023/05/04 03:08:19;;;;;;;0.10;0.10;;;;;;;10.49;55.67;102324.28;5064855;28;20037;-84
2023/05/04 03:10:45;;;;;;;0.10;0.10;;;;;;;10.46;55.75;102320.72;5070408;28;20450;-83
2023/05/04 03:13:12;;;;;;;0.10;0.10;;;;;;;10.45;55.72;102326.88;5067931;28;20039;-81
2023/05/04 03:15:38;;;;;;;0.10;0.10;;;;;;;10.42;55.96;102326.88;5071309;28;20040;-84
2023/05/04 03:18:04;;;;;;;0.10;0.10;;;;;;;10.38;55.88;102320.69;5066052;28;20078;-84
2023/05/04 03:20:30;;;;;;;0.08;0.08;;;;;;;10.36;55.96;102322.44;5073858;28;20403;-83
2023/05/04 03:22:56;;;;;;;0.10;0.10;;;;;;;10.33;56.13;102317.97;5074762;28;20042;-83
2023/05/04 03:25:22;;;;;;;0.10;0.10;;;;;;;10.32;56.26;102324.16;5072682;28;20051;-84
2023/05/04 03:27:48;;;;;;;0.08;0.08;;;;;;;10.29;56.28;102321.50;5072172;28;20028;-84
2023/05/04 03:30:15;;;;;;;0.10;0.10;;;;;;;10.27;56.05;102320.59;5064359;28;20025;-84
2023/05/04 03:32:41;;;;;;;0.10;0.10;;;;;;;10.26;55.92;102320.59;5071126;28;20032;-82
2023/05/04 03:35:08;;;;;;;0.10;0.10;;;;;;;10.23;56.25;102312.63;5072594;28;20024;-82
2023/05/04 03:37:34;;;;;;;0.10;0.10;;;;;;;10.21;56.22;102312.63;5070107;28;20028;-83
2023/05/04 03:40:00;;;;;;;0.10;0.10;;;;;;;10.19;56.19;102314.34;5064176;28;20029;-84
2023/05/04 03:42:26;;;;;;;0.50;0.50;;;;;;;10.18;56.31;102312.59;5071456;28;20116;-83
2023/05/04 03:44:52;;;;;;;0.10;0.10;;;;;;;10.15;56.28;102313.47;5063513;28;20607;-82
2023/05/04 03:47:18;;;;;;;0.10;0.10;;;;;;;10.14;56.28;102305.50;5067756;28;20535;-82
2023/05/04 03:49:44;;;;;;;0.10;0.10;;;;;;;10.14;56.44;102316.09;5068744;28;20530;-83
2023/05/04 03:52:10;;;;;;;0.10;0.10;;;;;;;10.13;56.40;102311.69;5063373;28;20074;-84
2023/05/04 03:54:36;;;;;;;0.10;0.10;;;;;;;10.11;56.62;102311.69;5065063;28;20029;-82
2023/05/04 03:57:03;;;;;;;0.10;0.10;;;;;;;10.12;56.40;102304.59;5071354;28;20028;-82
2023/05/04 03:59:29;;;;;;;0.10;0.10;;;;;;;10.12;56.70;102301.97;5073902;28;20036;-82
2023/05/04 04:01:55;;;;;;;0.10;0.10;;;;;;;10.11;56.25;102305.50;5069699;28;20482;-81
2023/05/04 04:04:21;;;;;;;0.10;0.10;;;;;;;10.09;56.30;102302.81;5075409;28;20029;-82
2023/05/04 04:06:47;;;;;;;0.10;0.10;;;;;;;10.07;56.18;102293.09;5071903;28;20033;-81
2023/05/04 04:09:13;;;;;;;0.10;0.10;;;;;;;10.04;56.27;102294.88;5065471;28;20048;-81
2023/05/04 04:11:40;;;;;;;0.10;0.10;;;;;;;10.03;56.42;102287.81;5071719;28;20039;-82
2023/05/04 04:14:06;;;;;;;0.10;0.10;;;;;;;10.02;56.65;102291.31;5063535;28;20020;-84
2023/05/04 04:16:32;;;;;;;0.10;0.10;;;;;;;10.01;56.52;102289.56;5059435;28;20024;-85
2023/05/04 04:18:58;;;;;;;0.10;0.10;;;;;;;10.00;56.78;102293.06;5063140;28;20033;-84
2023/05/04 04:21:25;;;;;;;0.10;0.10;;;;;;;10.00;56.76;102293.06;5074757;28;20036;-84
2023/05/04 04:23:51;;;;;;;0.10;0.10;;;;;;;10.00;56.91;102287.78;5073771;28;20028;-84
2023/05/04 04:26:17;;;;;;;0.10;0.10;;;;;;;10.00;56.47;102282.47;5073507;28;20043;-83
2023/05/04 04:28:49;;;;;;;0.10;0.10;;;;;;;9.99;56.68;102286.03;5084535;28;20044;-83
2023/05/04 04:31:16;;;;;;;0.80;0.80;;;;;;;9.99;56.87;102278.09;5075262;28;20063;-83
2023/05/04 04:33:42;;;;;;;0.10;0.10;;;;;;;9.99;57.11;102274.53;5079392;28;20039;-84
2023/05/04 04:36:10;;;;;;;0.10;0.10;;;;;;;9.97;57.07;102276.28;5075240;28;20024;-84
2023/05/04 04:38:36;;;;;;;0.10;0.10;;;;;;;10.00;57.10;102271.88;5068151;28;20515;-84
2023/05/04 04:41:02;;;;;;;0.10;0.10;;;;;;;9.99;57.27;102278.09;5073225;28;20035;-84
2023/05/04 04:43:29;;;;;;;0.10;0.10;;;;;;;10.01;56.86;102273.66;5076103;28;20028;-84
2023/05/04 04:45:55;;;;;;;0.10;0.10;;;;;;;10.04;56.77;102267.50;5073784;28;20044;-83
2023/05/04 04:48:24;;;;;;;0.10;0.10;;;;;;;10.06;56.95;102271.06;5080887;28;20496;-86
2023/05/04 04:50:50;;;;;;;0.10;0.10;;;;;;;10.09;57.08;102264.88;5084750;28;20029;-82
2023/05/04 04:53:17;;;;;;;0.10;0.10;;;;;;;10.12;57.11;102264.88;5083433;28;20510;-82
2023/05/04 04:55:43;;;;;;;0.10;0.10;;;;;;;10.14;56.99;102269.34;5077285;28;20033;-81
2023/05/04 04:58:09;;;;;;;0.10;0.10;;;;;;;10.15;57.17;102260.47;5069718;28;20028;-81
2023/05/04 05:00:36;;;;;;;0.10;0.10;;;;;;;10.17;57.25;102263.16;5066959;28;20123;-83
2023/05/04 05:03:03;;;;;;;0.20;0.20;;;;;;;10.20;57.03;102261.41;5076494;28;20032;-81
2023/05/04 05:05:29;;;;;;;0.10;0.10;;;;;;;10.24;57.29;102264.94;5069534;28;20044;-83
2023/05/04 05:07:55;;;;;;;0.20;0.20;;;;;;;10.30;57.05;102266.75;5077079;28;20033;-83
2023/05/04 05:10:21;;;;;;;0.10;0.10;;;;;;;10.32;57.16;102263.22;5074553;28;20033;-83
2023/05/04 05:12:49;;;;;;;0.30;0.30;;;;;;;10.36;57.34;102267.66;5073505;28;20021;-82
2023/05/04 05:15:15;;;;;;;0.10;0.10;;;;;;;10.45;57.46;102268.59;5076007;28;20468;-82
2023/05/04 05:17:41;;;;;;;0.10;0.10;;;;;;;10.50;57.32;102272.13;5067170;28;20075;-82
2023/05/04 05:20:10;;;;;;;0.10;0.10;;;;;;;10.56;57.27;102266.00;5069188;28;20086;-83
2023/05/04 05:22:37;;;;;;;1.27;0.43;;;;;;;10.62;57.20;102266.88;5072792;28;20031;-82
2023/05/04 05:25:05;;;;;;;0.10;0.10;;;;;;;10.70;56.99;102268.66;5071555;28;20031;-83
2023/05/04 05:27:33;;;;;;;0.10;0.10;;;;;;;10.75;57.32;102265.13;5076033;28;20040;-82
2023/05/04 05:30:00;;;;;;;0.10;0.10;;;;;;;10.80;56.99;102265.16;5072433;28;20063;-81
2023/05/04 05:32:26;;;;;;;0.10;0.10;;;;;;;10.85;57.14;102268.69;5071050;28;20037;-81
2023/05/04 05:34:52;;;;;;;0.10;0.10;;;;;;;10.89;56.94;102265.19;5073312;28;20102;-84
2023/05/04 05:37:19;;;;;;;0.10;0.10;;;;;;;10.92;56.92;102262.53;5069683;28;20028;-83
2023/05/04 05:39:45;;;;;;;0.10;0.10;;;;;;;10.96;56.68;102256.31;5070209;28;20033;-82
2023/05/04 05:42:11;;;;;;;0.10;0.10;;;;;;;10.99;56.85;102256.34;5070564;28;20032;-83
2023/05/04 05:44:37;;;;;;;0.10;0.10;;;;;;;11.03;57.22;102256.34;5071450;28;20037;-84
2023/05/04 05:47:04;;;;;;;0.10;0.10;;;;;;;11.08;57.08;102251.91;5067199;28;20528;-84
2023/05/04 05:49:30;;;;;;;0.30;0.30;;;;;;;11.12;56.77;102251.06;5068224;28;20060;-83
2023/05/04 05:51:57;;;;;;;0.00;0.00;;;;;;;11.15;57.10;102251.94;5070706;28;20048;-81
2023/05/04 05:54:24;;;;;;;0.43;0.43;;;;;;;11.22;56.91;102258.13;5071409;28;20046;-83
2023/05/04 05:56:50;;;;;;;0.10;0.10;;;;;;;11.27;57.04;102256.34;5067797;28;20029;-84
2023/05/04 05:59:16;;;;;;;1.17;0.50;;;;;;;11.33;57.08;102261.66;5075823;28;20506;-82
2023/05/04 06:01:42;;;;;;;0.10;0.10;;;;;;;11.36;57.14;102250.16;5074717;28;20070;-85
2023/05/04 06:04:09;;;;;;;0.63;0.40;;;;;;;11.44;56.76;102255.44;5071831;28;20052;-84
2023/05/04 06:06:35;;;;;;;2.05;1.85;;;;;;;11.47;56.72;102247.50;5066870;28;20056;-84
2023/05/04 06:09:01;;;;;;;0.10;0.10;;;;;;;11.52;56.69;102245.72;5073035;28;20037;-82
2023/05/04 06:11:27;;;;;;;0.10;0.10;;;;;;;11.59;56.66;102249.22;5072845;28;20032;-83
2023/05/04 06:13:53;;;;;;;0.25;0.25;;;;;;;11.64;56.77;102248.34;5068472;28;20040;-82
2023/05/04 06:16:20;;;;;;;0.05;0.05;;;;;;;11.68;56.73;102241.25;5069641;28;20036;-83
2023/05/04 06:18:46;;;;;;;0.00;0.00;;;;;;;11.75;56.40;102236.81;5067570;28;20404;-83
2023/05/04 06:21:12;;;;;;;0.10;0.10;;;;;;;11.80;56.79;102232.38;5076570;28;20029;-82
2023/05/04 06:23:39;;;;;;;0.10;0.10;;;;;;;11.86;56.81;102242.97;5078050;28;20345;-82
2023/05/04 06:26:06;;;;;;;0.10;0.10;;;;;;;11.91;56.06;102243.88;5068896;28;20020;-83
2023/05/04 06:28:33;;;;;;;0.10;0.10;;;;;;;11.95;56.45;102236.75;5074647;28;20041;-84
2023/05/04 06:31:00;;;;;;;0.00;0.00;;;;;;;12.03;56.63;102244.75;5073104;28;20074;-83
2023/05/04 06:33:27;;;;;;;0.10;0.10;;;;;;;12.10;56.57;102239.41;5076648;28;20029;-84
2023/05/04 06:35:53;;;;;;;0.10;0.10;;;;;;;12.16;56.29;102235.81;5075674;28;20112;-83
2023/05/04 06:38:20;;;;;;;0.03;0.03;;;;;;;12.22;56.54;102221.63;5071851;28;20024;-83
2023/05/04 06:40:47;;;;;;;0.10;0.10;;;;;;;12.30;56.17;102231.34;5072278;28;20333;-83
2023/05/04 06:43:13;;;;;;;0.10;0.10;;;;;;;12.37;55.40;102226.00;5070664;28;20039;-84
2023/05/04 06:45:39;;;;;;;0.45;0.45;;;;;;;12.43;55.87;102228.63;5074399;28;20126;-84
2023/05/04 06:48:06;;;;;;;0.10;0.10;;;;;;;12.56;55.98;102226.75;5073739;28;20032;-84
2023/05/04 06:50:32;;;;;;;0.10;0.10;;;;;;;12.66;55.90;102227.59;5040618;28;20043;-82
2023/05/04 06:53:13;;;;;;;0.17;0.17;;;;;;;12.85;55.36;102215.94;5067257;28;20060;-82
2023/05/04 06:55:40;;;;;;;0.10;0.10;;;;;;;12.88;55.66;102212.38;5070966;28;20404;-84
2023/05/04 06:58:06;;;;;;;0.10;0.10;;;;;;;12.97;55.45;102214.06;5083357;28;20024;-83
2023/05/04 07:00:32;;;;;;;0.10;0.10;;;;;;;13.06;55.11;102212.22;5079324;28;20111;-82
2023/05/04 07:02:58;;;;;;;0.10;0.10;;;;;;;13.16;54.98;102212.13;5072948;28;20035;-83
2023/05/04 07:05:25;;;;;;;0.10;0.10;;;;;;;13.25;54.68;102207.59;5075828;28;20032;-84
2023/05/04 07:07:51;;;;;;;0.10;0.10;;;;;;;13.35;55.16;102202.22;5065465;28;20091;-84
2023/05/04 07:10:18;;;;;;;0.10;0.10;;;;;;;13.47;54.93;102201.22;5072856;28;20484;-83
2023/05/04 07:12:44;;;;;;;0.00;0.00;;;;;;;13.56;54.52;102196.69;5074326;28;20025;-83
2023/05/04 07:15:11;;;;;;;0.10;0.10;;;;;;;13.67;54.26;102193.00;5074569;28;20033;-83
2023/05/04 07:17:37;;;;;;;0.40;0.40;;;;;;;13.77;54.39;102191.13;5071326;28;20020;-83
2023/05/04 07:20:04;;;;;;;0.73;0.73;;;;;;;13.89;54.34;102191.88;5066627;28;20039;-81
2023/05/04 07:22:31;;;;;;;0.00;0.00;;;;;;;13.99;54.24;102181.09;5072074;28;20608;-84
2023/05/04 07:24:58;;;;;;;0.00;0.00;;;;;;;14.12;53.84;102184.47;5063094;28;20138;-83
2023/05/04 07:27:24;;;;;;;0.00;0.00;;;;;;;14.21;53.87;102184.38;5066791;28;20028;-84
2023/05/04 07:29:50;;;;;;;0.10;0.10;;;;;;;14.33;53.92;102180.63;5063796;28;20036;-83
2023/05/04 07:32:19;;;;;;;0.10;0.10;;;;;;;14.47;53.90;102175.13;5070444;28;20138;-81
2023/05/04 07:34:45;;;;;;;0.10;0.10;;;;;;;14.57;53.65;102174.94;5083699;28;20012;-84
2023/05/04 07:37:11;;;;;;;0.00;0.00;;;;;;;14.66;53.33;102167.75;5085814;28;20024;-84
2023/05/04 07:39:38;;;;;;;0.08;0.08;;;;;;;14.79;53.23;102177.31;5076155;28;20474;-83
2023/05/04 07:42:05;;;;;;;0.20;0.20;;;;;;;14.91;53.11;102173.53;5072172;28;20036;-83
2023/05/04 07:44:31;;;;;;;0.30;0.30;;;;;;;15.04;52.86;102171.53;5073049;28;20024;-82
2023/05/04 07:46:58;;;;;;;5.47;2.65;;;;;;;15.15;52.59;102166.00;5068509;28;20033;-82
2023/05/04 07:49:25;;;;;;;0.08;0.08;;;;;;;15.28;52.17;102164.03;5071829;28;20079;-81
2023/05/04 07:51:54;;;;;;;0.08;0.08;;;;;;;15.33;52.04;102162.16;5067204;28;20029;-82
2023/05/04 07:54:21;;;;;;;1.17;0.75;;;;;;;15.45;52.48;102153.91;5067712;28;20044;-82
2023/05/04 07:56:47;;;;;;;0.40;0.40;;;;;;;15.56;51.95;102152.81;5076093;28;20027;-81
2023/05/04 07:59:16;;;;;;;1.60;0.98;;;;;;;15.65;52.02;102153.50;5064833;28;20033;-82
2023/05/04 08:01:42;;;;;;;0.00;0.00;;;;;;;15.77;51.62;102138.13;5075332;28;20031;-83
2023/05/04 08:04:08;;;;;;;0.10;0.10;;;;;;;15.87;51.90;102137.03;5068678;28;20404;-83
2023/05/04 08:06:38;;;;;;;0.20;0.20;;;;;;;15.94;51.56;102127.97;5068732;28;20102;-83
2023/05/04 08:09:05;;;;;;;0.00;0.00;;;;;;;16.04;51.71;102134.00;5079616;28;20115;-83
2023/05/04 08:11:33;;;;;;;0.00;0.00;;;;;;;16.10;51.42;102128.53;5078395;28;20024;-83
2023/05/04 08:14:00;;;;;;;0.00;0.00;;;;;;;16.20;51.42;102123.84;5068422;28;20024;-83
2023/05/04 08:16:27;;;;;;;0.68;0.68;;;;;;;16.33;51.29;102119.06;5078596;28;20063;-81
2023/05/04 08:18:53;;;;;;;0.20;0.20;;;;;;;16.43;51.13;102130.44;5082107;28;20079;-84
2023/05/04 08:21:19;;;;;;;0.10;0.10;;;;;;;16.50;50.77;102126.72;5071689;28;20403;-83
2023/05/04 08:23:45;;;;;;;0.00;0.00;;;;;;;16.58;51.09;102126.50;5067363;28;20051;-83
2023/05/04 08:26:11;;;;;;;0.00;0.00;;;;;;;16.66;50.57;102129.88;5066875;28;20044;-83
2023/05/04 08:28:39;;;;;;;0.10;0.10;;;;;;;16.70;50.52;102126.22;5064129;28;20035;-82
2023/05/04 08:31:06;;;;;;;0.10;0.10;;;;;;;16.74;50.73;102122.53;5066714;28;20076;-84
2023/05/04 08:33:33;;;;;;;0.40;0.40;;;;;;;16.82;50.43;102111.63;5069462;28;20100;-84
2023/05/04 08:35:59;;;;;;;0.10;0.10;;;;;;;16.85;50.02;102110.66;5067455;28;20024;-84
2023/05/04 08:38:25;;;;;;;0.05;0.05;;;;;;;16.92;50.37;102101.59;5080403;28;20029;-83
2023/05/04 08:40:53;;;;;;;0.20;0.20;;;;;;;16.96;50.14;102109.50;5067480;28;20029;-82
2023/05/04 08:43:19;;;;;;;0.20;0.20;;;;;;;17.02;50.16;102108.44;5068162;28;20085;-84
2023/05/04 08:45:45;;;;;;;0.10;0.10;;;;;;;17.04;49.21;102106.63;5071091;28;20024;-83
2023/05/04 08:48:12;;;;;;;0.30;0.30;;;;;;;17.09;49.61;102096.66;5074066;28;20879;-83
2023/05/04 08:50:38;;;;;;;0.20;0.20;;;;;;;17.16;49.37;102093.81;5076554;28;20113;-84
2023/05/04 08:53:07;;;;;;;0.10;0.10;;;;;;;17.26;49.41;102092.66;5074236;28;20032;-83
2023/05/04 08:55:36;;;;;;;0.10;0.10;;;;;;;17.36;49.22;102091.47;5076881;28;20107;-83
2023/05/04 08:58:08;;;;;;;0.63;0.40;;;;;;;17.44;49.37;102073.34;5074769;28;20101;-83
2023/05/04 09:00:36;;;;;;;0.10;0.10;;;;;;;17.50;48.64;102083.00;5077382;28;20033;-82
2023/05/04 09:03:04;;;;;;;0.00;0.00;;;;;;;17.57;48.46;102081.91;5077486;28;20110;-83
2023/05/04 09:05:31;;;;;;;0.10;0.10;;;;;;;17.71;49.00;102078.81;5069233;28;20097;-82
2023/05/04 09:07:58;;;;;;;0.10;0.10;;;;;;;17.79;48.74;102084.84;5063659;28;20430;-82
2023/05/04 09:10:24;;;;;;;0.75;0.75;;;;;;;17.91;48.51;102075.53;5078338;28;20028;-83
2023/05/04 09:12:52;;;;;;;0.20;0.20;;;;;;;18.04;48.31;102073.34;5071931;28;20058;-82
2023/05/04 09:15:19;;;;;;;0.15;0.15;;;;;;;18.18;48.15;102061.31;5070714;28;20388;-82
2023/05/04 09:20:46;;;;;;;0.10;0.10;;;;;;;18.53;47.74;102065.50;5101612;27;1175997;-80
2023/05/04 09:23:13;;;;;;;0.10;0.10;;;;;;;18.59;47.76;102064.41;5140883;27;20055;-83
2023/05/04 09:25:55;;;;;;;0.20;0.20;;;;;;;18.80;47.45;102064.59;5126426;28;20062;-83
2023/05/04 09:28:34;;;;;;;0.93;0.65;;;;;;;18.91;46.73;102057.09;5123556;28;20064;-85
2023/05/04 09:31:01;;;;;;;0.00;0.00;;;;;;;18.90;46.98;102052.59;5117466;27;20016;-84
2023/05/04 09:33:28;;;;;;;0.10;0.10;;;;;;;18.98;47.15;102047.88;5124503;28;20027;-84
2023/05/04 09:35:55;;;;;;;0.00;0.00;;;;;;;19.07;46.78;102044.84;5131272;27;20023;-83
2023/05/04 09:38:30;;;;;;;0.20;0.20;;;;;;;19.24;46.66;102033.47;5135906;27;20416;-83
2023/05/04 09:40:56;;;;;;;0.10;0.10;;;;;;;19.30;46.44;102032.38;5127355;28;20398;-82
2023/05/04 09:43:23;;;;;;;0.28;0.28;;;;;;;19.40;46.18;102033.78;5126795;27;20160;-83
2023/05/04 09:45:50;;;;;;;0.00;0.00;;;;;;;19.50;45.72;102036.09;5125748;28;20651;-84
2023/05/04 09:48:25;;;;;;;0.22;0.22;;;;;;;19.70;45.69;102028.16;5133431;27;20509;-81
2023/05/04 09:53:30;;;;;;;0.30;0.30;;;;;;;19.84;45.46;102022.25;5109298;27;1185748;-84
2023/05/04 09:56:07;;;;;;;0.20;0.20;;;;;;;19.99;45.66;102018.06;5131308;27;20031;-84
2023/05/04 09:58:33;;;;;;;0.10;0.10;;;;;;;20.11;45.64;102015.78;5136829;27;20028;-84
2023/05/04 10:01:00;;;;;;;0.10;0.10;;;;;;;20.24;45.39;102011.66;5118259;27;20036;-84
2023/05/04 10:03:27;;;;;;;0.15;0.15;;;;;;;20.36;45.26;102000.38;5126188;27;20402;-83
2023/05/04 10:05:53;;;;;;;0.10;0.10;;;;;;;20.47;44.72;102007.09;5120939;28;20585;-84
2023/05/04 10:08:21;;;;;;;0.63;0.63;;;;;;;20.59;44.77;102000.31;5124365;27;20059;-84
2023/05/04 10:10:47;;;;;;;0.10;0.10;;;;;;;20.67;44.04;101993.66;5124260;28;20059;-83
2023/05/04 10:13:14;;;;;;;0.50;0.25;;;;;;;20.79;44.48;101976.09;5122344;27;20046;-84
2023/05/04 10:15:53;;;;;;;0.20;0.20;;;;;;;20.96;44.19;101978.03;5130242;27;20039;-83
2023/05/04 10:21:49;;;;;;;0.10;0.10;;;;;;;21.30;44.07;101976.44;5105702;27;1701776;-83
2023/05/04 10:27:02;;;;;;;0.20;0.20;;;;;;;21.32;43.92;101963.78;5114300;27;1201697;-83
2023/05/04 10:29:32;;;;;;;0.10;0.10;;;;;;;21.59;43.49;101960.72;5141850;27;20036;-83
2023/05/04 10:32:01;;;;;;;0.40;0.40;;;;;;;21.78;43.17;101949.00;5124245;28;20454;-82
2023/05/04 10:37:03;;;;;;;0.13;0.13;;;;;;;22.06;42.89;101953.03;5060810;28;20907;-83
2023/05/04 10:39:32;;;;;;;0.32;0.30;;;;;;;22.18;42.39;101947.03;5053939;28;20123;-83
2023/05/04 10:42:07;;;;;;;0.00;0.00;;;;;;;22.24;41.60;101940.41;5055195;28;20337;-83
2023/05/04 10:44:36;;;;;;;1.45;0.57;;;;;;;22.34;41.95;101938.09;5053641;28;20036;-83
2023/05/04 10:47:06;;;;;;;0.17;0.17;;;;;;;22.43;41.71;101934.94;5056190;28;20071;-84
2023/05/04 10:49:33;;;;;;;0.10;0.10;;;;;;;22.51;41.46;101921.06;5054263;28;20022;-84
2023/05/04 10:52:15;;;;;;;0.32;0.32;;;;;;;22.68;40.75;101917.44;5055265;28;20032;-84
2023/05/04 10:54:42;;;;;;;0.25;0.25;;;;;;;22.71;40.77;101910.03;5062483;28;20025;-83
2023/05/04 10:57:11;;;;;;;0.10;0.10;;;;;;;22.81;41.07;101905.00;5054412;28;20033;-84
2023/05/04 10:59:38;;;;;;;0.32;0.32;;;;;;;22.87;40.77;101896.56;5059336;28;20025;-85
2023/05/04 11:02:06;;;;;;;0.20;0.20;;;;;;;22.97;41.01;101896.03;5054077;28;20504;-85
2023/05/04 11:04:33;;;;;;;0.10;0.10;;;;;;;23.06;40.96;101890.13;5056041;28;21331;-84
2023/05/04 11:07:04;;;;;;;0.10;0.10;;;;;;;23.16;39.96;101885.13;5052998;28;20064;-85
2023/05/04 11:09:37;;;;;;;0.40;0.40;;;;;;;23.27;40.61;101879.97;5053700;28;20465;-83
2023/05/04 11:12:03;;;;;;;0.30;0.30;;;;;;;23.38;40.79;101879.34;5053061;28;20033;-84
2023/05/04 11:14:29;;;;;;;0.10;0.10;;;;;;;23.49;40.64;101870.59;5053454;28;20108;-83
2023/05/04 11:17:14;;;;;;;0.10;0.10;;;;;;;23.68;39.79;101870.41;5051330;28;20041;-83
2023/05/04 11:19:49;;;;;;;0.20;0.20;;;;;;;23.80;39.38;101871.50;5052893;28;20033;-84
2023/05/04 11:22:16;;;;;;;0.60;0.60;;;;;;;23.79;37.88;101873.34;5053066;28;20037;-82
2023/05/04 11:24:44;;;;;;;0.20;0.20;;;;;;;23.86;38.31;101868.41;5052746;28;20048;-83
2023/05/04 11:30:04;;;;;;;0.10;0.10;;;;;;;23.97;39.68;101865.09;5103538;27;20359;-84
2023/05/04 11:32:36;;;;;;;1.25;1.08;;;;;;;24.10;39.15;101866.09;5087322;28;20074;-86
2023/05/04 11:35:05;;;;;;;0.70;0.70;;;;;;;24.18;38.84;101854.78;5087751;28;20082;-84
2023/05/04 11:37:39;;;;;;;0.10;0.10;;;;;;;24.35;39.19;101853.72;5089013;28;20058;-83
2023/05/04 11:40:15;;;;;;;0.52;0.52;;;;;;;24.49;38.87;101848.31;5094767;28;20048;-84
2023/05/04 11:42:42;;;;;;;0.00;0.00;;;;;;;24.60;38.82;101849.47;5092973;28;20373;-84